sensor_id;sensor_type;location;lat;lon;timestamp;P1;durP1;ratioP1;P2;durP2;ratioP2
51491;SDS011;37569;50.548;8.778;2023-09-30T00:03:43;6.7;;;3.2;;
51491;SDS011;37569;50.548;8.778;2023-09-30T00:08:44;6.5;;;3.2;;
51491;SDS011;37569;50.548;8.778;2023-09-30T00:13:45;6.3;;;3.3;;
51491;SDS011;37569;50.548;8.778;2023-09-30T00:18:45;6.8;;;3.7;;
51491;SDS011;37569;50.548;8.778;2023-09-30T00:23:46;7.6;;;3.8;;
51491;SDS011;37569;50.548;8.778;2023-09-30T00:28:47;9.1;;;3.9;;
51491;SDS011;37569;50.548;8.778;2023-09-30T00:33:47;9.2;;;3.6;;
51491;SDS011;37569;50.548;8.778;2023-09-30T00:38:48;9.6;;;3.7;;
51491;SDS011;37569;50.548;8.778;2023-09-30T00:43:49;7.3;;;3.9;;
51491;SDS011;37569;50.548;8.778;2023-09-30T00:48:49;6.8;;;3.4;;
51491;SDS011;37569;50.548;8.778;2023-09-30T00:53:50;6.7;;;3.7;;
51491;SDS011;37569;50.548;8.778;2023-09-30T00:58:51;6;;;3.5;;
51491;SDS011;37569;50.548;8.778;2023-09-30T01:03:51;7.3;;;4;;
51491;SDS011;37569;50.548;8.778;2023-09-30T01:08:52;7.3;;;4.3;;
51491;SDS011;37569;50.548;8.778;2023-09-30T01:13:53;7.7;;;4.1;;
51491;SDS011;37569;50.548;8.778;2023-09-30T01:18:54;8.6;;;3.7;;
51491;SDS011;37569;50.548;8.778;2023-09-30T01:23:54;8.8;;;4.4;;
51491;SDS011;37569;50.548;8.778;2023-09-30T01:28:55;9.6;;;4.4;;
51491;SDS011;37569;50.548;8.778;2023-09-30T01:33:56;8.2;;;4.4;;
51491;SDS011;37569;50.548;8.778;2023-09-30T01:38:56;9.1;;;4.3;;
51491;SDS011;37569;50.548;8.778;2023-09-30T01:43:57;7.9;;;3.9;;
51491;SDS011;37569;50.548;8.778;2023-09-30T01:48:58;8.6;;;4.3;;
51491;SDS011;37569;50.548;8.778;2023-09-30T01:53:58;7.1;;;4;;
51491;SDS011;37569;50.548;8.778;2023-09-30T01:58:59;8.9;;;4.3;;
51491;SDS011;37569;50.548;8.778;2023-09-30T02:04:00;9.1;;;4.7;;
51491;SDS011;37569;50.548;8.778;2023-09-30T02:09:00;7.8;;;4.1;;
51491;SDS011;37569;50.548;8.778;2023-09-30T02:14:01;7.6;;;4.3;;
51491;SDS011;37569;50.548;8.778;2023-09-30T02:19:02;9;;;4.9;;
51491;SDS011;37569;50.548;8.778;2023-09-30T02:24:02;8.7;;;4.7;;
51491;SDS011;37569;50.548;8.778;2023-09-30T02:29:03;10.8;;;4.4;;
51491;SDS011;37569;50.548;8.778;2023-09-30T02:34:04;9.5;;;4.5;;
51491;SDS011;37569;50.548;8.778;2023-09-30T02:39:04;10.5;;;4.8;;
51491;SDS011;37569;50.548;8.778;2023-09-30T02:44:05;8.2;;;4.9;;
51491;SDS011;37569;50.548;8.778;2023-09-30T02:49:06;7;;;4.2;;
51491;SDS011;37569;50.548;8.778;2023-09-30T02:54:06;11.3;;;4.7;;
51491;SDS011;37569;50.548;8.778;2023-09-30T02:59:07;10.2;;;4.7;;
51491;SDS011;37569;50.548;8.778;2023-09-30T03:04:07;9.2;;;4.6;;
51491;SDS011;37569;50.548;8.778;2023-09-30T03:09:08;11.3;;;4.1;;
51491;SDS011;37569;50.548;8.778;2023-09-30T03:14:09;7.6;;;4.2;;
51491;SDS011;37569;50.548;8.778;2023-09-30T03:19:09;8.6;;;4.4;;
51491;SDS011;37569;50.548;8.778;2023-09-30T03:24:10;10.2;;;4.5;;
51491;SDS011;37569;50.548;8.778;2023-09-30T03:29:10;8;;;4.4;;
51491;SDS011;37569;50.548;8.778;2023-09-30T03:34:11;8.7;;;4.4;;
51491;SDS011;37569;50.548;8.778;2023-09-30T03:39:12;7.6;;;4.4;;
51491;SDS011;37569;50.548;8.778;2023-09-30T03:44:12;11.4;;;4.7;;
51491;SDS011;37569;50.548;8.778;2023-09-30T03:49:13;8.6;;;4.7;;
51491;SDS011;37569;50.548;8.778;2023-09-30T03:54:14;12.1;;;4.9;;
51491;SDS011;37569;50.548;8.778;2023-09-30T03:59:14;8.5;;;4.5;;
51491;SDS011;37569;50.548;8.778;2023-09-30T04:04:15;7.6;;;4.7;;
51491;SDS011;37569;50.548;8.778;2023-09-30T04:09:15;11.5;;;5;;
51491;SDS011;37569;50.548;8.778;2023-09-30T04:14:16;9.5;;;4.5;;
51491;SDS011;37569;50.548;8.778;2023-09-30T04:19:16;9;;;4.6;;
51491;SDS011;37569;50.548;8.778;2023-09-30T04:24:17;8.6;;;4.9;;
51491;SDS011;37569;50.548;8.778;2023-09-30T04:29:17;10.9;;;5.1;;
51491;SDS011;37569;50.548;8.778;2023-09-30T04:34:18;9;;;5;;
51491;SDS011;37569;50.548;8.778;2023-09-30T04:39:19;10.9;;;5;;
51491;SDS011;37569;50.548;8.778;2023-09-30T04:44:19;10.1;;;5;;
51491;SDS011;37569;50.548;8.778;2023-09-30T04:49:20;8.3;;;4.9;;
51491;SDS011;37569;50.548;8.778;2023-09-30T04:54:20;11.2;;;5.1;;
51491;SDS011;37569;50.548;8.778;2023-09-30T04:59:21;9.4;;;5;;
51491;SDS011;37569;50.548;8.778;2023-09-30T05:04:21;13.4;;;5.3;;
51491;SDS011;37569;50.548;8.778;2023-09-30T05:09:22;8.6;;;5;;
51491;SDS011;37569;50.548;8.778;2023-09-30T05:14:22;11.9;;;5.1;;
51491;SDS011;37569;50.548;8.778;2023-09-30T05:19:23;11.6;;;5.5;;
51491;SDS011;37569;50.548;8.778;2023-09-30T05:24:23;11.1;;;5.8;;
51491;SDS011;37569;50.548;8.778;2023-09-30T05:29:24;15.8;;;6.1;;
51491;SDS011;37569;50.548;8.778;2023-09-30T05:34:24;14.9;;;6.6;;
51491;SDS011;37569;50.548;8.778;2023-09-30T05:39:25;12.6;;;5.3;;
51491;SDS011;37569;50.548;8.778;2023-09-30T05:44:25;14;;;7.4;;
51491;SDS011;37569;50.548;8.778;2023-09-30T05:49:26;18.7;;;10.8;;
51491;SDS011;37569;50.548;8.778;2023-09-30T05:54:26;21.2;;;12.1;;
51491;SDS011;37569;50.548;8.778;2023-09-30T05:59:27;17.6;;;11.4;;
51491;SDS011;37569;50.548;8.778;2023-09-30T06:04:27;15.3;;;10.6;;
51491;SDS011;37569;50.548;8.778;2023-09-30T06:09:28;15.9;;;10;;
51491;SDS011;37569;50.548;8.778;2023-09-30T06:14:29;9.4;;;7;;
51491;SDS011;37569;50.548;8.778;2023-09-30T06:19:29;10.2;;;6.5;;
51491;SDS011;37569;50.548;8.778;2023-09-30T06:24:30;11.5;;;6.2;;
51491;SDS011;37569;50.548;8.778;2023-09-30T06:29:31;9.1;;;5.3;;
51491;SDS011;37569;50.548;8.778;2023-09-30T06:34:31;11;;;6.3;;
51491;SDS011;37569;50.548;8.778;2023-09-30T06:39:32;11.3;;;7.9;;
51491;SDS011;37569;50.548;8.778;2023-09-30T06:44:33;10.8;;;7.9;;
51491;SDS011;37569;50.548;8.778;2023-09-30T06:49:33;11.9;;;7.8;;
51491;SDS011;37569;50.548;8.778;2023-09-30T06:54:34;10.7;;;7.7;;
51491;SDS011;37569;50.548;8.778;2023-09-30T06:59:35;9;;;7.1;;
51491;SDS011;37569;50.548;8.778;2023-09-30T07:04:36;10.3;;;7.6;;
51491;SDS011;37569;50.548;8.778;2023-09-30T07:09:36;11.2;;;7.5;;
51491;SDS011;37569;50.548;8.778;2023-09-30T07:14:37;10.1;;;7.2;;
51491;SDS011;37569;50.548;8.778;2023-09-30T07:19:38;9.4;;;7.2;;
51491;SDS011;37569;50.548;8.778;2023-09-30T07:24:39;9.2;;;6.8;;
51491;SDS011;37569;50.548;8.778;2023-09-30T07:29:40;10.1;;;7.3;;
51491;SDS011;37569;50.548;8.778;2023-09-30T07:34:40;11.1;;;7.4;;
51491;SDS011;37569;50.548;8.778;2023-09-30T07:39:41;13.9;;;8.5;;
51491;SDS011;37569;50.548;8.778;2023-09-30T07:44:42;11.2;;;8.1;;
51491;SDS011;37569;50.548;8.778;2023-09-30T07:49:43;11;;;7.5;;
51491;SDS011;37569;50.548;8.778;2023-09-30T07:54:44;12.7;;;7.8;;
51491;SDS011;37569;50.548;8.778;2023-09-30T07:59:44;10.9;;;7.8;;
51491;SDS011;37569;50.548;8.778;2023-09-30T08:04:45;15.6;;;8.7;;
51491;SDS011;37569;50.548;8.778;2023-09-30T08:09:47;14.1;;;8.4;;
51491;SDS011;37569;50.548;8.778;2023-09-30T08:14:47;14.2;;;8.5;;
51491;SDS011;37569;50.548;8.778;2023-09-30T08:19:47;11.4;;;8;;
51491;SDS011;37569;50.548;8.778;2023-09-30T08:24:48;12.1;;;7.5;;
51491;SDS011;37569;50.548;8.778;2023-09-30T08:29:49;9.8;;;5.7;;
51491;SDS011;37569;50.548;8.778;2023-09-30T08:34:50;11;;;6.2;;
51491;SDS011;37569;50.548;8.778;2023-09-30T08:39:51;11.1;;;6;;
51491;SDS011;37569;50.548;8.778;2023-09-30T08:44:52;9.7;;;4.4;;
51491;SDS011;37569;50.548;8.778;2023-09-30T08:49:52;8.7;;;3.8;;
51491;SDS011;37569;50.548;8.778;2023-09-30T08:54:53;12.5;;;4.2;;
51491;SDS011;37569;50.548;8.778;2023-09-30T08:59:54;8.9;;;3.2;;
51491;SDS011;37569;50.548;8.778;2023-09-30T09:04:55;11;;;3.6;;
51491;SDS011;37569;50.548;8.778;2023-09-30T09:10:03;9.6;;;4;;
51491;SDS011;37569;50.548;8.778;2023-09-30T09:14:56;8.9;;;3.5;;
51491;SDS011;37569;50.548;8.778;2023-09-30T09:19:58;8.1;;;2.9;;
51491;SDS011;37569;50.548;8.778;2023-09-30T09:24:58;9.5;;;3.2;;
51491;SDS011;37569;50.548;8.778;2023-09-30T09:30:00;7.4;;;3.3;;
51491;SDS011;37569;50.548;8.778;2023-09-30T09:35:00;9.8;;;3.1;;
51491;SDS011;37569;50.548;8.778;2023-09-30T09:40:00;8.8;;;3.4;;
51491;SDS011;37569;50.548;8.778;2023-09-30T09:45:02;7.5;;;3.6;;
51491;SDS011;37569;50.548;8.778;2023-09-30T09:50:03;8.1;;;2.8;;
51491;SDS011;37569;50.548;8.778;2023-09-30T09:55:03;7.9;;;3.1;;
51491;SDS011;37569;50.548;8.778;2023-09-30T10:00:04;8.9;;;3.3;;
51491;SDS011;37569;50.548;8.778;2023-09-30T10:05:05;8.9;;;3.3;;
51491;SDS011;37569;50.548;8.778;2023-09-30T10:10:07;6.6;;;3;;
51491;SDS011;37569;50.548;8.778;2023-09-30T10:15:38;7.5;;;2.9;;
51491;SDS011;37569;50.548;8.778;2023-09-30T10:20:08;8.8;;;3.9;;
51491;SDS011;37569;50.548;8.778;2023-09-30T10:25:33;8.9;;;3.2;;
51491;SDS011;37569;50.548;8.778;2023-09-30T10:30:10;8.8;;;3.5;;
51491;SDS011;37569;50.548;8.778;2023-09-30T10:35:10;10;;;2.8;;
51491;SDS011;37569;50.548;8.778;2023-09-30T10:40:12;6.9;;;2.8;;
51491;SDS011;37569;50.548;8.778;2023-09-30T10:45:44;9.8;;;2.8;;
51491;SDS011;37569;50.548;8.778;2023-09-30T10:51:18;7.8;;;3.1;;
51491;SDS011;37569;50.548;8.778;2023-09-30T10:55:17;8;;;3.2;;
51491;SDS011;37569;50.548;8.778;2023-09-30T11:00:14;7.4;;;2.6;;
51491;SDS011;37569;50.548;8.778;2023-09-30T11:05:15;8.2;;;2.7;;
51491;SDS011;37569;50.548;8.778;2023-09-30T11:10:17;8.4;;;3;;
51491;SDS011;37569;50.548;8.778;2023-09-30T11:15:17;6.7;;;3;;
51491;SDS011;37569;50.548;8.778;2023-09-30T11:20:18;6.4;;;2.6;;
51491;SDS011;37569;50.548;8.778;2023-09-30T11:25:19;6.1;;;2.8;;
51491;SDS011;37569;50.548;8.778;2023-09-30T11:30:20;6;;;2.6;;
51491;SDS011;37569;50.548;8.778;2023-09-30T11:35:22;4.7;;;2.5;;
51491;SDS011;37569;50.548;8.778;2023-09-30T11:40:21;7.7;;;2.8;;
51491;SDS011;37569;50.548;8.778;2023-09-30T11:45:22;5.9;;;2.9;;
51491;SDS011;37569;50.548;8.778;2023-09-30T11:50:23;6.1;;;3;;
51491;SDS011;37569;50.548;8.778;2023-09-30T11:55:24;5.9;;;2.8;;
51491;SDS011;37569;50.548;8.778;2023-09-30T12:00:25;7.1;;;2.8;;
51491;SDS011;37569;50.548;8.778;2023-09-30T12:05:26;7.3;;;3.1;;
51491;SDS011;37569;50.548;8.778;2023-09-30T12:10:27;5.6;;;2.5;;
51491;SDS011;37569;50.548;8.778;2023-09-30T12:15:28;5.8;;;2.5;;
51491;SDS011;37569;50.548;8.778;2023-09-30T12:20:28;4.6;;;2.4;;
51491;SDS011;37569;50.548;8.778;2023-09-30T12:25:29;5.2;;;2.3;;
51491;SDS011;37569;50.548;8.778;2023-09-30T12:30:30;5.5;;;2.5;;
51491;SDS011;37569;50.548;8.778;2023-09-30T12:35:31;6.7;;;2.3;;
51491;SDS011;37569;50.548;8.778;2023-09-30T12:40:32;4.5;;;2;;
51491;SDS011;37569;50.548;8.778;2023-09-30T12:45:33;4.7;;;2.1;;
51491;SDS011;37569;50.548;8.778;2023-09-30T12:50:34;4.2;;;2;;
51491;SDS011;37569;50.548;8.778;2023-09-30T12:55:35;4.3;;;2.1;;
51491;SDS011;37569;50.548;8.778;2023-09-30T13:00:35;5.3;;;2.2;;
51491;SDS011;37569;50.548;8.778;2023-09-30T13:05:36;5.7;;;2.1;;
51491;SDS011;37569;50.548;8.778;2023-09-30T13:10:37;4.3;;;2;;
51491;SDS011;37569;50.548;8.778;2023-09-30T13:15:38;5.3;;;2.2;;
51491;SDS011;37569;50.548;8.778;2023-09-30T13:20:39;4.8;;;1.9;;
51491;SDS011;37569;50.548;8.778;2023-09-30T13:25:40;4.4;;;2.2;;
51491;SDS011;37569;50.548;8.778;2023-09-30T13:30:41;3.7;;;1.9;;
51491;SDS011;37569;50.548;8.778;2023-09-30T13:35:44;4.3;;;2;;
51491;SDS011;37569;50.548;8.778;2023-09-30T13:40:42;3.9;;;1.8;;
51491;SDS011;37569;50.548;8.778;2023-09-30T13:45:43;4.6;;;1.8;;
51491;SDS011;37569;50.548;8.778;2023-09-30T13:50:44;3.7;;;2.1;;
51491;SDS011;37569;50.548;8.778;2023-09-30T13:55:45;3.6;;;1.7;;
51491;SDS011;37569;50.548;8.778;2023-09-30T14:00:46;3.7;;;2.1;;
51491;SDS011;37569;50.548;8.778;2023-09-30T14:05:47;2.8;;;1.7;;
51491;SDS011;37569;50.548;8.778;2023-09-30T14:10:47;3.7;;;1.8;;
51491;SDS011;37569;50.548;8.778;2023-09-30T14:15:49;3.7;;;1.8;;
51491;SDS011;37569;50.548;8.778;2023-09-30T14:20:49;5.3;;;1.8;;
51491;SDS011;37569;50.548;8.778;2023-09-30T14:25:53;5.6;;;2;;
51491;SDS011;37569;50.548;8.778;2023-09-30T14:30:51;3.6;;;1.7;;
51491;SDS011;37569;50.548;8.778;2023-09-30T14:35:52;5.2;;;2.2;;
51491;SDS011;37569;50.548;8.778;2023-09-30T14:40:53;5.4;;;1.9;;
51491;SDS011;37569;50.548;8.778;2023-09-30T14:45:53;4.4;;;2;;
51491;SDS011;37569;50.548;8.778;2023-09-30T14:50:54;4.6;;;2.1;;
51491;SDS011;37569;50.548;8.778;2023-09-30T14:55:55;5.5;;;2;;
51491;SDS011;37569;50.548;8.778;2023-09-30T15:00:56;5.2;;;2.2;;
51491;SDS011;37569;50.548;8.778;2023-09-30T15:05:57;3.3;;;1.9;;
51491;SDS011;37569;50.548;8.778;2023-09-30T15:10:58;3.5;;;2;;
51491;SDS011;37569;50.548;8.778;2023-09-30T15:15:59;4;;;2.1;;
51491;SDS011;37569;50.548;8.778;2023-09-30T15:20:59;5;;;2.2;;
51491;SDS011;37569;50.548;8.778;2023-09-30T15:26:00;3.4;;;1.9;;
51491;SDS011;37569;50.548;8.778;2023-09-30T15:31:01;4.2;;;2.3;;
51491;SDS011;37569;50.548;8.778;2023-09-30T15:36:08;5;;;2.2;;
51491;SDS011;37569;50.548;8.778;2023-09-30T15:41:03;4.6;;;2.4;;
51491;SDS011;37569;50.548;8.778;2023-09-30T15:46:03;4.8;;;2.2;;
51491;SDS011;37569;50.548;8.778;2023-09-30T15:51:04;4.8;;;2.1;;
51491;SDS011;37569;50.548;8.778;2023-09-30T15:56:05;4.6;;;2.2;;
51491;SDS011;37569;50.548;8.778;2023-09-30T16:01:06;5.3;;;2.3;;
51491;SDS011;37569;50.548;8.778;2023-09-30T16:06:07;5.6;;;2.5;;
51491;SDS011;37569;50.548;8.778;2023-09-30T16:11:07;4.8;;;2.2;;
51491;SDS011;37569;50.548;8.778;2023-09-30T16:16:08;5.4;;;2.3;;
51491;SDS011;37569;50.548;8.778;2023-09-30T16:21:09;4.5;;;2.1;;
51491;SDS011;37569;50.548;8.778;2023-09-30T16:26:12;4.9;;;2.4;;
51491;SDS011;37569;50.548;8.778;2023-09-30T16:31:11;4.3;;;2.3;;
51491;SDS011;37569;50.548;8.778;2023-09-30T16:36:11;4.2;;;2.2;;
51491;SDS011;37569;50.548;8.778;2023-09-30T16:41:14;4;;;2.4;;
51491;SDS011;37569;50.548;8.778;2023-09-30T16:46:13;5.6;;;2.7;;
51491;SDS011;37569;50.548;8.778;2023-09-30T16:51:14;6;;;2.4;;
51491;SDS011;37569;50.548;8.778;2023-09-30T16:56:14;5.4;;;2.7;;
51491;SDS011;37569;50.548;8.778;2023-09-30T17:01:15;7.2;;;2.6;;
51491;SDS011;37569;50.548;8.778;2023-09-30T17:06:16;5.2;;;2.6;;
51491;SDS011;37569;50.548;8.778;2023-09-30T17:11:17;5.7;;;2.7;;
51491;SDS011;37569;50.548;8.778;2023-09-30T17:16:17;5.6;;;3;;
51491;SDS011;37569;50.548;8.778;2023-09-30T17:21:18;7.1;;;2.9;;
51491;SDS011;37569;50.548;8.778;2023-09-30T17:26:19;4.5;;;2.8;;
51491;SDS011;37569;50.548;8.778;2023-09-30T17:31:19;4.6;;;2.9;;
51491;SDS011;37569;50.548;8.778;2023-09-30T17:36:20;7.8;;;3.8;;
51491;SDS011;37569;50.548;8.778;2023-09-30T17:41:21;7.8;;;4.3;;
51491;SDS011;37569;50.548;8.778;2023-09-30T17:46:21;8.2;;;4.4;;
51491;SDS011;37569;50.548;8.778;2023-09-30T17:51:22;7.5;;;4.3;;
51491;SDS011;37569;50.548;8.778;2023-09-30T17:56:23;6.6;;;3.8;;
51491;SDS011;37569;50.548;8.778;2023-09-30T18:01:23;8;;;4;;
51491;SDS011;37569;50.548;8.778;2023-09-30T18:06:24;6.3;;;3.7;;
51491;SDS011;37569;50.548;8.778;2023-09-30T18:11:24;7.4;;;4.1;;
51491;SDS011;37569;50.548;8.778;2023-09-30T18:16:25;7.6;;;3.9;;
51491;SDS011;37569;50.548;8.778;2023-09-30T18:21:26;7.7;;;4.4;;
51491;SDS011;37569;50.548;8.778;2023-09-30T18:26:26;8.2;;;4.6;;
51491;SDS011;37569;50.548;8.778;2023-09-30T18:31:27;9.8;;;4.6;;
51491;SDS011;37569;50.548;8.778;2023-09-30T18:36:28;7.7;;;5.3;;
51491;SDS011;37569;50.548;8.778;2023-09-30T18:41:28;9.6;;;6.5;;
51491;SDS011;37569;50.548;8.778;2023-09-30T18:46:29;8.1;;;5.8;;
51491;SDS011;37569;50.548;8.778;2023-09-30T18:51:29;8.9;;;5;;
51491;SDS011;37569;50.548;8.778;2023-09-30T18:56:30;7.8;;;5.1;;
51491;SDS011;37569;50.548;8.778;2023-09-30T19:01:31;8.7;;;5.9;;
51491;SDS011;37569;50.548;8.778;2023-09-30T19:06:31;9.9;;;6;;
51491;SDS011;37569;50.548;8.778;2023-09-30T19:11:32;8.1;;;5.6;;
51491;SDS011;37569;50.548;8.778;2023-09-30T19:16:33;8.5;;;5.4;;
51491;SDS011;37569;50.548;8.778;2023-09-30T19:21:33;9.7;;;5.8;;
51491;SDS011;37569;50.548;8.778;2023-09-30T19:26:34;8.5;;;5.3;;
51491;SDS011;37569;50.548;8.778;2023-09-30T19:31:34;10.8;;;6.3;;
51491;SDS011;37569;50.548;8.778;2023-09-30T19:36:35;8.7;;;5.1;;
51491;SDS011;37569;50.548;8.778;2023-09-30T19:41:35;9.1;;;5.6;;
51491;SDS011;37569;50.548;8.778;2023-09-30T19:46:36;10.3;;;5.7;;
51491;SDS011;37569;50.548;8.778;2023-09-30T19:51:36;8.5;;;5.7;;
51491;SDS011;37569;50.548;8.778;2023-09-30T19:56:37;8.3;;;5.1;;
51491;SDS011;37569;50.548;8.778;2023-09-30T20:01:37;8.3;;;5.1;;
51491;SDS011;37569;50.548;8.778;2023-09-30T20:06:38;7.7;;;4.5;;
51491;SDS011;37569;50.548;8.778;2023-09-30T20:11:38;8.4;;;5;;
51491;SDS011;37569;50.548;8.778;2023-09-30T20:16:39;8.1;;;5.1;;
51491;SDS011;37569;50.548;8.778;2023-09-30T20:21:40;9.1;;;5.3;;
51491;SDS011;37569;50.548;8.778;2023-09-30T20:26:40;8.7;;;5.3;;
51491;SDS011;37569;50.548;8.778;2023-09-30T20:31:41;6.8;;;5;;
51491;SDS011;37569;50.548;8.778;2023-09-30T20:36:41;6.2;;;4.9;;
51491;SDS011;37569;50.548;8.778;2023-09-30T20:41:42;6.1;;;4.7;;
51491;SDS011;37569;50.548;8.778;2023-09-30T20:46:42;8.2;;;5.5;;
51491;SDS011;37569;50.548;8.778;2023-09-30T20:51:43;8.3;;;5.3;;
51491;SDS011;37569;50.548;8.778;2023-09-30T20:56:43;9.5;;;5.2;;
51491;SDS011;37569;50.548;8.778;2023-09-30T21:01:44;9;;;5.7;;
51491;SDS011;37569;50.548;8.778;2023-09-30T21:06:44;8.9;;;6;;
51491;SDS011;37569;50.548;8.778;2023-09-30T21:11:45;8.7;;;6;;
51491;SDS011;37569;50.548;8.778;2023-09-30T21:16:45;8.4;;;5.5;;
51491;SDS011;37569;50.548;8.778;2023-09-30T21:21:46;7;;;5.3;;
51491;SDS011;37569;50.548;8.778;2023-09-30T21:26:46;7.5;;;5.1;;
51491;SDS011;37569;50.548;8.778;2023-09-30T21:31:47;6.8;;;5.1;;
51491;SDS011;37569;50.548;8.778;2023-09-30T21:36:47;8.4;;;5.2;;
51491;SDS011;37569;50.548;8.778;2023-09-30T21:41:48;8.2;;;5.6;;
51491;SDS011;37569;50.548;8.778;2023-09-30T21:46:48;8.1;;;5.4;;
51491;SDS011;37569;50.548;8.778;2023-09-30T21:51:49;9.9;;;5.9;;
51491;SDS011;37569;50.548;8.778;2023-09-30T21:56:49;10.5;;;6.1;;
51491;SDS011;37569;50.548;8.778;2023-09-30T22:01:50;8;;;5.3;;
51491;SDS011;37569;50.548;8.778;2023-09-30T22:06:50;8.2;;;5.5;;
51491;SDS011;37569;50.548;8.778;2023-09-30T22:11:51;7;;;5.1;;
51491;SDS011;37569;50.548;8.778;2023-09-30T22:16:51;8.1;;;5.3;;
51491;SDS011;37569;50.548;8.778;2023-09-30T22:21:52;10.1;;;5.8;;
51491;SDS011;37569;50.548;8.778;2023-09-30T22:26:52;8;;;5.5;;
51491;SDS011;37569;50.548;8.778;2023-09-30T22:31:53;8.6;;;4.9;;
51491;SDS011;37569;50.548;8.778;2023-09-30T22:36:53;8.1;;;4.9;;
51491;SDS011;37569;50.548;8.778;2023-09-30T22:41:53;8.2;;;4.9;;
51491;SDS011;37569;50.548;8.778;2023-09-30T22:46:54;8;;;5.2;;
51491;SDS011;37569;50.548;8.778;2023-09-30T22:51:54;8.5;;;4.7;;
51491;SDS011;37569;50.548;8.778;2023-09-30T22:56:55;8.2;;;5.1;;
51491;SDS011;37569;50.548;8.778;2023-09-30T23:01:55;8;;;5.2;;
51491;SDS011;37569;50.548;8.778;2023-09-30T23:06:56;7.7;;;5.1;;
51491;SDS011;37569;50.548;8.778;2023-09-30T23:11:56;8.4;;;4.9;;
51491;SDS011;37569;50.548;8.778;2023-09-30T23:16:57;7.6;;;5.1;;
51491;SDS011;37569;50.548;8.778;2023-09-30T23:21:57;8.8;;;5;;
51491;SDS011;37569;50.548;8.778;2023-09-30T23:26:58;7;;;5.2;;
51491;SDS011;37569;50.548;8.778;2023-09-30T23:31:58;6.7;;;4.9;;
51491;SDS011;37569;50.548;8.778;2023-09-30T23:36:59;8.7;;;4.9;;
51491;SDS011;37569;50.548;8.778;2023-09-30T23:41:59;6.8;;;5.1;;
51491;SDS011;37569;50.548;8.778;2023-09-30T23:47:00;7.8;;;4.7;;
51491;SDS011;37569;50.548;8.778;2023-09-30T23:52:00;7.1;;;4.8;;
51491;SDS011;37569;50.548;8.778;2023-09-30T23:57:00;6.9;;;4.4;;
